createdAt,value
2023-05-04T00:01:38.705Z,9.30
2023-05-04T00:06:40.894Z,9.20
2023-05-04T00:11:43.011Z,9.20
2023-05-04T00:16:46.983Z,9.10
2023-05-04T00:21:49.256Z,9.10
2023-05-04T00:26:51.552Z,9.10
2023-05-04T00:31:55.382Z,8.80
2023-05-04T00:36:57.704Z,9.00
2023-05-04T00:41:59.903Z,9.00
2023-05-04T00:47:04.130Z,8.80
2023-05-04T00:52:06.875Z,8.70
2023-05-04T00:57:09.230Z,8.80
2023-05-04T01:02:12.455Z,8.70
2023-05-04T01:07:26.618Z,8.70
2023-05-04T01:12:35.570Z,8.60
2023-05-04T01:17:39.116Z,8.50
2023-05-04T01:22:42.837Z,8.50
2023-05-04T01:27:50.230Z,8.30
2023-05-04T01:32:54.081Z,8.40
2023-05-04T01:37:57.855Z,8.40
2023-05-04T01:42:59.896Z,8.30
2023-05-04T01:48:01.939Z,8.20
2023-05-04T01:53:05.723Z,8.20
2023-05-04T01:58:07.824Z,8.20
2023-05-04T02:03:10.810Z,8.10
2023-05-04T02:08:14.217Z,8.00
2023-05-04T02:13:16.814Z,7.90
2023-05-04T02:18:18.816Z,7.80
2023-05-04T02:23:22.260Z,7.90
2023-05-04T02:28:24.646Z,7.90
2023-05-04T02:33:26.723Z,7.90
2023-05-04T02:38:29.837Z,7.80
2023-05-04T02:43:32.020Z,7.60
2023-05-04T02:48:34.525Z,7.50
2023-05-04T02:53:38.060Z,7.40
2023-05-04T02:58:40.244Z,7.40
2023-05-04T03:03:42.590Z,7.20
2023-05-04T03:08:46.134Z,7.20
2023-05-04T03:13:48.044Z,7.50
2023-05-04T03:24:11.646Z,7.30
2023-05-04T03:29:13.971Z,7.30
2023-05-04T03:34:15.991Z,7.30
2023-05-04T03:39:19.794Z,7.20
2023-05-04T03:44:21.838Z,7.10
2023-05-04T03:49:23.838Z,7.10
2023-05-04T03:54:27.575Z,7.00
2023-05-04T03:59:29.657Z,7.00
2023-05-04T04:04:31.608Z,7.00
2023-05-04T04:09:35.140Z,6.90
2023-05-04T04:14:36.834Z,6.90
2023-05-04T04:19:38.923Z,6.80
2023-05-04T04:24:42.786Z,6.80
2023-05-04T04:29:44.691Z,6.80
2023-05-04T04:34:47.080Z,6.80
2023-05-04T04:39:50.910Z,6.90
2023-05-04T04:44:53.689Z,7.10
2023-05-04T04:49:55.938Z,7.20
2023-05-04T04:55:00.071Z,7.10
2023-05-04T05:00:02.391Z,7.10
2023-05-04T05:05:05.265Z,7.20
2023-05-04T05:10:10.287Z,7.20
2023-05-04T05:15:12.860Z,7.40
2023-05-04T05:20:15.520Z,7.80
2023-05-04T05:25:19.166Z,8.40
2023-05-04T05:30:21.348Z,9.00
2023-05-04T05:35:23.845Z,9.60
2023-05-04T05:40:27.325Z,10.20
2023-05-04T05:45:29.716Z,10.60
2023-05-04T05:50:31.983Z,11.00
2023-05-04T05:55:35.594Z,11.50
2023-05-04T06:00:37.706Z,11.80
2023-05-04T06:05:39.511Z,12.20
2023-05-04T06:10:43.409Z,12.70
2023-05-04T06:15:52.835Z,13.20
2023-05-04T06:21:00.346Z,13.70
2023-05-04T06:26:05.991Z,14.10
2023-05-04T06:31:08.684Z,14.50
2023-05-04T06:36:10.810Z,14.80
2023-05-04T06:41:15.017Z,15.10
2023-05-04T06:46:17.431Z,15.50
2023-05-04T06:51:19.546Z,15.80
2023-05-04T06:56:23.800Z,16.20
2023-05-04T07:01:25.831Z,16.60
2023-05-04T07:06:28.757Z,16.90
2023-05-04T07:11:32.312Z,17.30
2023-05-04T07:16:34.211Z,17.50
2023-05-04T07:21:36.689Z,17.90
2023-05-04T07:26:40.136Z,18.20
2023-05-04T07:31:42.395Z,18.60
2023-05-04T07:36:44.751Z,18.30
2023-05-04T07:41:49.614Z,18.90
2023-05-04T07:46:51.748Z,19.50
2023-05-04T07:51:53.966Z,19.30
2023-05-04T07:56:57.226Z,19.70
2023-05-04T08:01:59.920Z,20.40
2023-05-04T08:07:02.248Z,20.60
2023-05-04T08:12:06.035Z,20.20
2023-05-04T08:17:08.428Z,20.80
2023-05-04T08:22:10.812Z,21.30
2023-05-04T08:27:15.946Z,21.60
2023-05-04T08:32:18.456Z,22.20
2023-05-04T08:37:21.460Z,21.90
2023-05-04T08:42:32.504Z,22.10
2023-05-04T08:47:34.740Z,22.20
2023-05-04T08:52:38.157Z,22.10
2023-05-04T08:57:44.613Z,22.00
2023-05-04T09:02:48.323Z,22.90
2023-05-04T09:07:52.671Z,23.30
2023-05-04T09:12:56.975Z,23.20
2023-05-04T09:18:00.282Z,23.60
2023-05-04T09:23:03.990Z,23.90
2023-05-04T09:28:07.166Z,23.50
2023-05-04T09:33:10.801Z,23.70
2023-05-04T09:38:12.585Z,23.70
2023-05-04T09:43:16.003Z,24.80
2023-05-04T09:48:20.609Z,25.00
2023-05-04T09:53:25.194Z,25.20
2023-05-04T09:58:29.203Z,25.50
2023-05-04T10:03:31.856Z,25.30
2023-05-04T10:08:34.652Z,25.60
2023-05-04T10:13:38.086Z,26.10
2023-05-04T10:18:57.706Z,26.00
2023-05-04T10:24:29.526Z,26.40
2023-05-04T10:29:34.469Z,26.80
2023-05-04T10:34:37.149Z,27.60
2023-05-04T10:39:40.159Z,27.40
2023-05-04T10:44:53.420Z,26.90
2023-05-04T10:50:04.198Z,26.20
2023-05-04T10:55:09.260Z,26.30
2023-05-04T11:00:14.575Z,26.50
2023-05-04T11:05:20.465Z,27.10
2023-05-04T11:10:24.584Z,26.90
2023-05-04T11:15:28.365Z,27.80
2023-05-04T11:20:30.456Z,28.40
2023-05-04T11:25:33.575Z,28.40
2023-05-04T11:30:37.919Z,28.50
2023-05-04T11:35:40.535Z,28.40
2023-05-04T11:40:49.934Z,27.90
2023-05-04T11:45:56.081Z,27.30
2023-05-04T11:50:58.281Z,27.30
2023-05-04T11:56:03.829Z,28.10
2023-05-04T12:01:07.695Z,27.70
2023-05-04T12:06:10.768Z,28.90
2023-05-04T12:11:16.434Z,29.80
2023-05-04T12:16:22.006Z,29.30
2023-05-04T12:21:24.375Z,29.60
2023-05-04T12:26:27.156Z,29.90
2023-05-04T12:31:30.877Z,30.70
2023-05-04T12:36:33.343Z,30.40
2023-05-04T12:41:35.794Z,30.50
2023-05-04T12:46:39.470Z,30.80
2023-05-04T12:51:41.569Z,31.10
2023-05-04T12:56:43.512Z,31.40
2023-05-04T13:01:47.267Z,31.70
2023-05-04T13:06:49.230Z,32.00
2023-05-04T13:11:51.334Z,32.60
2023-05-04T13:16:55.580Z,32.50
2023-05-04T13:21:57.830Z,32.80
2023-05-04T13:27:02.445Z,33.00
2023-05-04T13:32:06.885Z,32.40
2023-05-04T13:37:08.816Z,32.10
2023-05-04T13:42:10.669Z,32.50
2023-05-04T13:47:15.219Z,32.50
2023-05-04T13:52:17.383Z,32.40
2023-05-04T13:57:19.468Z,32.50
2023-05-04T14:02:25.126Z,32.20
2023-05-04T14:07:30.731Z,31.50
2023-05-04T14:12:33.075Z,32.10
2023-05-04T14:17:36.786Z,32.80
2023-05-04T14:22:41.373Z,34.30
2023-05-04T14:27:44.226Z,34.10
2023-05-04T14:32:47.508Z,34.30
2023-05-04T14:37:49.757Z,34.40
2023-05-04T14:42:52.139Z,34.50
2023-05-04T14:47:55.925Z,33.70
2023-05-04T14:52:58.351Z,32.70
2023-05-04T14:58:00.648Z,31.90
2023-05-04T15:03:04.284Z,30.00
2023-05-04T15:08:07.027Z,30.50
2023-05-04T15:13:09.201Z,30.50
2023-05-04T15:18:12.860Z,29.10
2023-05-04T15:23:14.912Z,29.60
2023-05-04T15:28:16.939Z,30.20
2023-05-04T15:33:20.493Z,29.10
2023-05-04T15:38:22.900Z,29.50
2023-05-04T15:43:24.927Z,29.80
2023-05-04T15:48:28.888Z,29.40
2023-05-04T15:53:31.034Z,29.10
2023-05-04T15:58:33.191Z,29.10
2023-05-04T16:03:36.615Z,28.10
2023-05-04T16:08:38.790Z,27.00
2023-05-04T16:13:41.126Z,26.90
2023-05-04T16:18:45.039Z,26.50
2023-05-04T16:23:47.101Z,26.20
2023-05-04T16:28:49.392Z,25.80
2023-05-04T16:33:53.731Z,25.50
2023-05-04T16:38:55.805Z,24.90
2023-05-04T16:43:58.319Z,24.70
2023-05-04T16:49:02.231Z,24.50
2023-05-04T16:54:04.374Z,24.40
2023-05-04T16:59:06.926Z,24.10
2023-05-04T17:04:11.355Z,23.90
2023-05-04T17:09:13.377Z,23.60
2023-05-04T17:14:15.746Z,23.40
2023-05-04T17:19:19.749Z,23.20
2023-05-04T17:24:22.031Z,23.00
2023-05-04T17:29:24.516Z,22.70
2023-05-04T17:34:28.402Z,22.40
2023-05-04T17:39:31.878Z,22.10
2023-05-04T17:44:33.868Z,21.80
2023-05-04T17:49:37.680Z,21.50
2023-05-04T17:54:39.937Z,21.20
2023-05-04T17:59:42.076Z,20.90
2023-05-04T18:04:45.908Z,20.50
2023-05-04T18:09:47.882Z,20.10
2023-05-04T18:14:50.220Z,19.90
2023-05-04T18:19:53.776Z,19.60
2023-05-04T18:24:55.712Z,19.40
2023-05-04T18:29:58.053Z,19.20
2023-05-04T18:35:01.805Z,18.70
2023-05-04T18:40:05.247Z,18.40
2023-05-04T18:45:10.479Z,18.10
2023-05-04T18:50:52.619Z,17.90
2023-05-04T19:02:17.012Z,17.60
2023-05-04T19:07:21.555Z,17.60
2023-05-04T19:12:24.073Z,17.30
2023-05-04T19:17:26.337Z,17.10
2023-05-04T19:22:31.285Z,17.00
2023-05-04T19:27:33.540Z,16.90
2023-05-04T19:32:37.483Z,16.90
2023-05-04T19:37:41.344Z,17.00
2023-05-04T19:42:46.345Z,17.30
2023-05-04T19:47:48.648Z,17.30
2023-05-04T19:52:53.130Z,17.20
2023-05-04T19:57:55.518Z,17.00
2023-05-04T20:02:57.970Z,17.00
2023-05-04T20:08:04.206Z,16.90
2023-05-04T20:13:07.039Z,16.90
2023-05-04T20:18:09.526Z,16.70
2023-05-04T20:23:13.549Z,16.50
2023-05-04T20:28:16.715Z,16.30
2023-05-04T20:33:19.314Z,16.20
2023-05-04T20:38:22.877Z,16.00
2023-05-04T20:43:25.108Z,15.80
2023-05-04T20:48:27.673Z,15.80
2023-05-04T20:53:36.484Z,15.70
2023-05-04T20:58:38.383Z,15.70
2023-05-04T21:03:40.972Z,15.90
2023-05-04T21:08:44.797Z,15.90
2023-05-04T21:13:46.990Z,15.70
2023-05-04T21:18:49.487Z,15.50
2023-05-04T21:23:53.091Z,15.20
2023-05-04T21:28:55.496Z,15.10
2023-05-04T21:33:57.913Z,14.90
2023-05-04T21:39:01.439Z,14.80
2023-05-04T21:44:03.386Z,15.00
2023-05-04T21:49:05.202Z,14.90
2023-05-04T21:54:09.223Z,14.70
2023-05-04T21:59:11.225Z,14.60
2023-05-04T22:04:13.486Z,14.50
2023-05-04T22:09:19.045Z,14.40
2023-05-04T22:14:21.572Z,14.40
2023-05-04T22:19:25.123Z,14.40
2023-05-04T22:24:29.090Z,14.30
2023-05-04T22:29:31.253Z,14.60
2023-05-04T22:34:33.253Z,14.60
2023-05-04T22:39:36.579Z,14.30
2023-05-04T22:44:38.690Z,14.30
2023-05-04T22:49:41.514Z,14.40
2023-05-04T22:54:45.847Z,14.20
2023-05-04T22:59:48.431Z,14.20
2023-05-04T23:04:50.423Z,14.20
2023-05-04T23:09:53.625Z,14.20
2023-05-04T23:14:55.992Z,14.20
2023-05-04T23:20:07.576Z,14.00
2023-05-04T23:25:11.645Z,13.80
2023-05-04T23:30:14.315Z,13.70
2023-05-04T23:35:16.660Z,13.70
2023-05-04T23:40:20.319Z,13.70
2023-05-04T23:45:22.707Z,13.70
2023-05-04T23:50:25.020Z,13.60
2023-05-04T23:55:28.441Z,13.40
